»·PEaware :: GHOST13 KGEG-KSEA

GHOST13 :: KGEG-KSEA

FLIGHT INFORMATION

Flight Status: Arrived
Operator: Unknown
More flights by this operator :: More flights under this callsign
Pilot: D. A. (21464)
Aircraft: BEECH AIRCRAFT T-6A TEXAN
(TEX2)
More flights by this aircraft type
Origin: KGEG Spokane Intl
United States
Destination: KSEA Seattle-Tacoma Intl
United States
More flights between these airports :: More routes between these airports
Route: +GEG6 GEG V120 EPH EPH EPH8
File this flight plan on PilotEdge
Remarks:
Altitude:
(Current/Filed)
16,000ft
Speed:
(Current/Filed)
270kts
Departed: 12-Nov-20 12:45 PM
Arrived: 12-Nov-20 01:32 PM
Distance/Time
Traveled:
194nm/0:47
Distance/Time
To Go:
Arrived

Flight Plot

Page will automatically refresh every two minutes.

Flight plan parsing failed; only flown route is shown


Map Options




Map Legend


Flown Route
Filed Route
Departure Airport
Arrival Airport
Navaid (VOR, NDB)
Fix

Horizontal Profiles

Position Reports

Time Latitude Longitude Heading Altitude Ground
Speed
12-Nov-20 12:25 47.620428 -117.528554 359 2359ft 0kts
12-Nov-20 12:26 47.620428 -117.528554 359 2359ft 0kts
12-Nov-20 12:27 47.620428 -117.528554 359 2359ft 0kts
12-Nov-20 12:28 47.620428 -117.528554 359 2359ft 0kts
12-Nov-20 12:29 47.620428 -117.528554 359 2359ft 0kts
12-Nov-20 12:30 47.620428 -117.528554 359 2359ft 0kts
12-Nov-20 12:31 47.620428 -117.528554 359 2359ft 0kts
12-Nov-20 12:32 47.620428 -117.528554 359 2359ft 0kts
12-Nov-20 12:33 47.620428 -117.528554 359 2359ft 0kts
12-Nov-20 12:34 47.620428 -117.528554 359 2359ft 0kts
12-Nov-20 12:35 47.620428 -117.528554 359 2359ft 0kts
12-Nov-20 12:36 47.620428 -117.528554 359 2359ft 0kts
12-Nov-20 12:37 47.620428 -117.528554 359 2359ft 0kts
12-Nov-20 12:38 47.620428 -117.528554 359 2359ft 0kts
12-Nov-20 12:39 47.621143 -117.528925 340 2358ft 10kts
12-Nov-20 12:40 47.623868 -117.525849 44 2352ft 14kts
12-Nov-20 12:41 47.627061 -117.521045 44 2341ft 16kts
12-Nov-20 12:42 47.630248 -117.517130 321 2324ft 10kts
12-Nov-20 12:43 47.630501 -117.517457 318 2323ft 0kts
12-Nov-20 12:44 47.629813 -117.520358 225 2332ft 67kts
12-Nov-20 12:45 47.602046 -117.564891 230 4523ft 176kts
12-Nov-20 12:46 47.565828 -117.615296 223 8110ft 189kts
12-Nov-20 12:47 47.528028 -117.671361 226 11615ft 202kts
12-Nov-20 12:48 47.481469 -117.745384 227 12362ft 271kts
12-Nov-20 12:49 47.440382 -117.833867 269 14291ft 248kts
12-Nov-20 12:50 47.443774 -117.933454 275 16209ft 275kts
12-Nov-20 12:51 47.426505 -118.045285 271 16637ft 293kts
12-Nov-20 12:52 47.421846 -118.216433 266 15947ft 280kts
12-Nov-20 12:53 47.416884 -118.651510 269 15847ft 299kts
12-Nov-20 12:54 47.400137 -118.852461 262 16034ft 301kts
12-Nov-20 12:55 47.393277 -118.973407 270 15973ft 302kts
12-Nov-20 12:56 47.394680 -119.094567 271 15992ft 302kts
12-Nov-20 12:57 47.391514 -119.214955 262 16087ft 300kts
12-Nov-20 12:58 47.381994 -119.335081 267 16056ft 301kts
12-Nov-20 12:59 47.384710 -119.455981 268 16103ft 301kts
12-Nov-20 13:00 47.406737 -119.572541 288 16005ft 303kts
12-Nov-20 13:01 47.432149 -119.687617 286 16174ft 300kts
12-Nov-20 13:02 47.472020 -119.905327 287 15917ft 305kts
12-Nov-20 13:03 47.523767 -120.148103 289 15937ft 303kts
12-Nov-20 13:04 47.560342 -120.354790 285 16012ft 300kts
12-Nov-20 13:05 47.583547 -120.472880 289 15999ft 302kts
12-Nov-20 13:06 47.608869 -120.589984 289 15958ft 303kts
12-Nov-20 13:07 47.633958 -120.707211 287 16079ft 301kts
12-Nov-20 13:08 47.652677 -120.828261 284 15978ft 305kts
12-Nov-20 13:09 47.672449 -120.948833 286 15951ft 303kts
12-Nov-20 13:10 47.697183 -121.066729 282 15982ft 301kts
12-Nov-20 13:11 47.713155 -121.194424 284 15962ft 301kts
12-Nov-20 13:12 47.747959 -121.387271 287 15940ft 301kts
12-Nov-20 13:13 47.774382 -121.504092 291 15898ft 303kts
12-Nov-20 13:14 47.801795 -121.620593 289 15984ft 300kts
12-Nov-20 13:15 47.818998 -121.739342 278 15094ft 288kts
12-Nov-20 13:16 47.827323 -121.851710 275 11764ft 265kts
12-Nov-20 13:17 47.835695 -121.955815 277 7620ft 227kts
12-Nov-20 13:18 47.842981 -122.037031 277 6911ft 195kts
12-Nov-20 13:19 47.850628 -122.123213 277 7026ft 229kts
12-Nov-20 13:20 47.858838 -122.215531 277 7006ft 230kts
12-Nov-20 13:21 47.828862 -122.284507 204 6899ft 231kts
12-Nov-20 13:22 47.769235 -122.297248 193 5951ft 202kts
12-Nov-20 13:23 47.717398 -122.305753 180 5707ft 206kts
12-Nov-20 13:24 47.665483 -122.302522 185 4415ft 143kts
12-Nov-20 13:25 47.630879 -122.303791 185 3706ft 114kts
12-Nov-20 13:26 47.600571 -122.303151 186 3154ft 109kts
12-Nov-20 13:27 47.542862 -122.307115 183 1984ft 106kts
12-Nov-20 13:28 47.514928 -122.306272 183 1480ft 102kts
12-Nov-20 13:29 47.487536 -122.307305 181 951ft 100kts
12-Nov-20 13:30 47.460433 -122.307810 179 441ft 90kts
12-Nov-20 13:31 47.455529 -122.306842 134 426ft 5kts
12-Nov-20 13:32 47.454670 -122.306262 179 426ft 13kts

Navigation Log

Ident Type
Flight plan parsing failed, navigation log unavailable